Home   Weather   Milan Chok   Past weeks
Flag for Nepal

Past Weather in Milan Chok, Nepal — Yesterday and Last 2 Weeks

Currently: 50 °F. Passing clouds. (Weather station: Kathmandu Airport, Nepal). See more current weather

Past Weather in Milan Chok — Graph

°F

Milan Chok Temperature Yesterday

Maximum temperature yesterday: 70 °F (at 1:45 pm)
Minimum temperature yesterday: 48 °F (at 4:45 am)
Average temperature yesterday: 58 °F

High & Low Weather Summary for the Past Weeks

 TemperatureHumidityPressure
High75 °F (Nov 25, 2:15 pm)100% (Nov 17, 7:15 am)30.24 "Hg (Nov 17, 7:15 am)
Low48 °F (Nov 21, 4:15 am)33% (Nov 26, 1:45 pm)29.95 "Hg (Nov 27, 1:45 pm)
Average59 °F73%30.08 "Hg
* Reported Nov 16 1:45 am — Dec 1 1:45 am, Milan Chok. Weather by CustomWeather, © 2022

Note: Actual official high and low records may vary slightly from our data, if they occured in-between our weather recording intervals... More about our weather records

Milan Chok Weather History for the Previous 24 Hours

Scroll right to see more
 ConditionsComfort  
Time TempWeatherWind HumidityBarometerVisibility
1:45 am
Thu, Dec 1
50 °FPassing clouds.3 mph94%30.12 "Hg4 mi
1:15 am50 °FPassing clouds.2 mph94%30.12 "Hg4 mi
12:45 am52 °FPassing clouds.2 mph88%30.12 "Hg4 mi
12:15 am52 °FPassing clouds.2 mph88%30.12 "Hg4 mi
11:45 pm
Wed, Nov 30
52 °FPassing clouds.2 mph88%30.12 "Hg4 mi
11:15 pm54 °FPassing clouds.2 mph82%30.15 "Hg4 mi
10:45 pm54 °FPassing clouds.3 mph82%30.15 "Hg4 mi
10:15 pm54 °FPassing clouds.5 mph88%30.15 "Hg4 mi
9:45 pm55 °FPassing clouds.2 mph82%30.15 "Hg4 mi
9:15 pm54 °FPassing clouds.3 mph88%30.15 "Hg4 mi
8:45 pm55 °FPassing clouds.3 mph82%30.12 "Hg4 mi
8:15 pm57 °FPassing clouds.2 mph82%30.12 "Hg4 mi
7:45 pm57 °FPassing clouds.5 mph77%30.12 "Hg4 mi
7:15 pm59 °FPassing clouds.2 mph72%30.12 "Hg4 mi
6:45 pm59 °FPassing clouds.3 mph72%30.12 "Hg4 mi
6:15 pm61 °FPassing clouds.7 mph68%30.09 "Hg4 mi
5:45 pm61 °FPartly sunny.7 mph68%30.09 "Hg5 mi
5:15 pm63 °FScattered clouds.8 mph64%30.09 "Hg5 mi
4:45 pm63 °FScattered clouds.7 mph64%30.09 "Hg5 mi
4:15 pm64 °FScattered clouds.8 mph60%30.09 "Hg5 mi
3:45 pm66 °FScattered clouds.8 mph52%30.09 "Hg5 mi
3:15 pm68 °FScattered clouds.8 mph43%30.09 "Hg5 mi
2:45 pm70 °FScattered clouds.7 mph50%30.09 "Hg5 mi
2:15 pm70 °FScattered clouds.3 mph46%30.09 "Hg5 mi
1:45 pm70 °FScattered clouds.5 mph46%30.09 "Hg5 mi
1:15 pm68 °FScattered clouds.5 mph49%30.12 "Hg4 mi
12:45 pm68 °FScattered clouds.3 mph53%30.12 "Hg4 mi
11:45 am66 °FScattered clouds.3 mph56%30.18 "Hg4 mi
11:15 am68 °FPassing clouds.2 mph53%30.18 "Hg4 mi
10:45 am64 °FPassing clouds.2 mph60%30.21 "Hg4 mi
10:15 am64 °FHaze.2 mph64%30.21 "Hg3 mi
9:45 am59 °FFog.No wind72%30.21 "Hg3 mi
9:15 am57 °FFog.No wind77%30.21 "Hg2 mi
8:45 am55 °FFog.No wind82%30.21 "Hg2 mi
8:15 am54 °FFog.2 mph82%30.18 "Hg2 mi
7:45 am50 °FFog.2 mph94%30.18 "Hg2 mi
7:15 am50 °FFog.2 mph88%30.18 "Hg2 mi
6:45 am48 °FFog.No wind94%30.15 "Hg2 mi
5:15 am48 °FFog.3 mph94%30.12 "Hg3 mi
4:45 am48 °FPassing clouds.3 mph94%30.12 "Hg4 mi
3:15 am50 °FPassing clouds.3 mph94%30.12 "Hg4 mi
Weather by CustomWeather, © 2022

See weather overview